Time;durP1;ratioP1;P1;durP2;ratioP2;P2;SDS_P1;SDS_P2;PMS_P1;PMS_P2;Temp;Humidity;BMP_temperature;BMP_pressure;BME280_temperature;BME280_humidity;BME280_pressure;Samples;Min_cycle;Max_cycle;Signal;HPM_P1;HPM_P2
2022/08/15 00:00:49;;;;;;;0.95;0.63;;;21.90;99.90;;;;;;5037251;28;20064;-83
2022/08/15 00:03:19;;;;;;;1.30;0.80;;;21.80;99.90;;;;;;5067305;28;20048;-83
2022/08/15 00:05:47;;;;;;;1.80;1.02;;;21.70;99.90;;;;;;5050756;28;20033;-80
2022/08/15 00:08:13;;;;;;;1.58;1.00;;;21.70;99.90;;;;;;5034665;28;20037;-83
2022/08/15 00:10:44;;;;;;;1.05;0.70;;;21.70;99.90;;;;;;5050664;28;20094;-83
2022/08/15 00:13:14;;;;;;;1.30;0.80;;;21.70;99.90;;;;;;5050841;28;20037;-83
2022/08/15 00:15:41;;;;;;;1.42;0.98;;;21.60;99.90;;;;;;5067064;28;20041;-83
2022/08/15 00:18:08;;;;;;;0.95;0.70;;;21.60;99.90;;;;;;5034700;28;20030;-80
2022/08/15 00:20:37;;;;;;;1.13;0.75;;;21.50;99.90;;;;;;5050520;28;20382;-82
2022/08/15 00:23:08;;;;;;;1.50;0.90;;;21.50;99.90;;;;;;5034620;28;20521;-80
2022/08/15 00:25:37;;;;;;;0.95;0.70;;;21.50;99.90;;;;;;5050279;28;20451;-83
2022/08/15 00:28:05;;;;;;;1.63;0.80;;;21.40;99.90;;;;;;5043518;28;20030;-80
2022/08/15 00:30:34;;;;;;;1.40;0.93;;;21.40;99.90;;;;;;5010327;28;20100;-83
2022/08/15 00:33:02;;;;;;;1.45;0.88;;;21.40;99.90;;;;;;5027617;28;20049;-80
2022/08/15 00:35:41;;;;;;;1.52;0.80;;;21.30;99.90;;;;;;5010799;28;20516;-83
2022/08/15 00:38:17;;;;;;;1.95;0.77;;;21.30;99.90;;;;;;5011105;28;20415;-83
2022/08/15 00:43:51;;;;;;;1.10;0.73;;;21.20;99.90;;;;;;5046447;28;20041;-80
2022/08/15 00:46:18;;;;;;;1.55;1.00;;;21.20;99.90;;;;;;5030766;28;20038;-83
2022/08/15 00:48:46;;;;;;;1.08;0.73;;;21.20;99.90;;;;;;5031153;28;20585;-82
2022/08/15 00:51:18;;;;;;;0.95;0.63;;;21.20;99.90;;;;;;5022428;28;20044;-80
2022/08/15 00:54:02;;;;;;;0.95;0.57;;;21.10;99.90;;;;;;5046670;28;20044;-80
2022/08/15 00:56:32;;;;;;;0.93;0.70;;;21.10;99.90;;;;;;5030108;28;20103;-82
2022/08/15 00:58:59;;;;;;;0.88;0.73;;;21.00;99.90;;;;;;5030453;28;20077;-83
2022/08/15 01:01:26;;;;;;;1.38;0.80;;;21.00;99.90;;;;;;5051262;28;20050;-80
2022/08/15 01:03:53;;;;;;;2.25;1.15;;;21.00;99.90;;;;;;5013335;28;20161;-80
2022/08/15 01:06:22;;;;;;;1.38;0.82;;;20.90;99.90;;;;;;4998159;28;20046;-79
2022/08/15 01:08:49;;;;;;;1.67;1.10;;;20.90;99.90;;;;;;5029879;28;20065;-80
2022/08/15 01:11:24;;;;;;;1.50;0.75;;;20.90;99.90;;;;;;5029935;28;20534;-83
2022/08/15 01:13:54;;;;;;;1.33;0.90;;;20.90;99.90;;;;;;5029727;28;20417;-83
2022/08/15 01:16:23;;;;;;;1.38;0.80;;;20.90;99.90;;;;;;5030641;28;20065;-80
2022/08/15 01:18:51;;;;;;;0.98;0.68;;;20.90;99.90;;;;;;5029810;28;20458;-80
2022/08/15 01:21:34;;;;;;;1.35;0.90;;;20.90;99.90;;;;;;5054475;28;20073;-83
2022/08/15 01:24:24;;;;;;;1.45;0.77;;;20.90;99.90;;;;;;5049967;28;20033;-80
2022/08/15 01:26:51;;;;;;;1.75;0.98;;;20.80;99.90;;;;;;5065783;28;20120;-80
2022/08/15 01:29:19;;;;;;;1.33;0.85;;;20.80;99.90;;;;;;5049429;28;20038;-80
2022/08/15 01:31:47;;;;;;;1.50;0.93;;;20.80;99.90;;;;;;5041859;28;20056;-80
2022/08/15 01:34:14;;;;;;;1.05;0.75;;;20.80;99.90;;;;;;5030090;28;20065;-82
2022/08/15 01:36:41;;;;;;;1.25;0.82;;;20.70;99.90;;;;;;5029471;28;20038;-82
2022/08/15 01:39:37;;;;;;;1.73;0.90;;;20.70;99.90;;;;;;5029407;28;20130;-83
2022/08/15 01:42:48;;;;;;;0.95;0.63;;;20.70;99.90;;;;;;5046158;28;20125;-80
2022/08/15 01:45:21;;;;;;;1.00;0.70;;;20.70;99.90;;;;;;5050518;28;20391;-79
2022/08/15 01:48:05;;;;;;;1.13;0.75;;;20.60;99.90;;;;;;5033452;28;20034;-82
2022/08/15 01:50:42;;;;;;;1.25;0.88;;;20.60;99.90;;;;;;5050485;28;20128;-79
2022/08/15 01:53:25;;;;;;;1.23;0.90;;;20.60;99.90;;;;;;5042902;28;20042;-80
2022/08/15 01:56:05;;;;;;;1.08;0.80;;;20.60;99.90;;;;;;5069545;28;20068;-80
2022/08/15 01:58:42;;;;;;;1.25;0.90;;;20.60;99.90;;;;;;5053114;28;20502;-83
2022/08/15 02:01:17;;;;;;;1.65;0.98;;;20.60;99.90;;;;;;5052787;28;20410;-81
2022/08/15 02:03:47;;;;;;;1.80;0.98;;;20.60;99.90;;;;;;5053066;28;20051;-80
2022/08/15 02:06:20;;;;;;;1.80;0.98;;;20.60;99.90;;;;;;5053369;28;20033;-82
2022/08/15 02:08:47;;;;;;;1.33;0.85;;;20.60;99.90;;;;;;5069699;28;20041;-80
2022/08/15 02:11:17;;;;;;;1.45;0.90;;;20.60;99.90;;;;;;5046004;28;20524;-82
2022/08/15 02:13:47;;;;;;;1.65;0.90;;;20.70;99.90;;;;;;5032866;28;20482;-80
2022/08/15 02:16:15;;;;;;;1.88;1.00;;;20.70;99.90;;;;;;5017440;28;20517;-82
2022/08/15 02:18:42;;;;;;;1.13;0.75;;;20.70;99.90;;;;;;5033175;28;20133;-82
2022/08/15 02:21:10;;;;;;;1.60;0.98;;;20.70;99.90;;;;;;5016802;28;20133;-82
2022/08/15 02:23:37;;;;;;;1.80;1.17;;;20.70;99.90;;;;;;5016747;28;20050;-80
2022/08/15 02:26:07;;;;;;;1.60;0.95;;;20.70;99.90;;;;;;5017241;28;20088;-80
2022/08/15 02:28:35;;;;;;;1.42;0.93;;;20.60;99.90;;;;;;5033256;28;20044;-83
2022/08/15 02:31:15;;;;;;;1.85;1.02;;;20.60;99.90;;;;;;5032875;28;20046;-80
2022/08/15 02:33:48;;;;;;;2.30;1.27;;;20.60;99.90;;;;;;5049133;28;20406;-80
2022/08/15 02:36:17;;;;;;;1.60;1.10;;;20.60;99.90;;;;;;5032959;28;20033;-82
2022/08/15 02:38:45;;;;;;;1.33;1.00;;;20.60;99.90;;;;;;5032676;28;20042;-79
2022/08/15 02:41:13;;;;;;;1.95;1.27;;;20.60;99.90;;;;;;5048992;28;20072;-79
2022/08/15 02:43:43;;;;;;;1.63;0.98;;;20.60;99.90;;;;;;5049259;28;20034;-80
2022/08/15 02:46:10;;;;;;;1.58;1.02;;;20.60;99.90;;;;;;5048645;28;20406;-82
2022/08/15 02:48:38;;;;;;;1.67;0.98;;;20.60;99.90;;;;;;5016321;28;20513;-83
2022/08/15 02:51:09;;;;;;;1.33;0.93;;;20.60;99.90;;;;;;5032486;28;20088;-79
2022/08/15 02:53:36;;;;;;;1.42;0.90;;;20.60;99.90;;;;;;5048483;28;20128;-80
2022/08/15 02:56:07;;;;;;;2.05;0.98;;;20.70;99.90;;;;;;5015829;28;20141;-80
2022/08/15 02:58:34;;;;;;;2.42;1.25;;;20.70;99.90;;;;;;5032584;28;20414;-83
2022/08/15 03:01:05;;;;;;;0.75;0.55;;;20.70;99.90;;;;;;5016157;28;20490;-80
2022/08/15 03:03:32;;;;;;;1.45;0.90;;;20.70;99.90;;;;;;5038868;28;20060;-79
2022/08/15 03:05:58;;;;;;;1.70;1.10;;;20.70;99.90;;;;;;5035678;28;20041;-79
2022/08/15 03:08:25;;;;;;;1.20;0.98;;;20.70;99.90;;;;;;5035904;28;20098;-82
2022/08/15 03:10:52;;;;;;;3.67;1.40;;;20.60;99.90;;;;;;5035376;28;20040;-83
2022/08/15 03:13:18;;;;;;;1.80;1.10;;;20.60;99.90;;;;;;5019527;28;20134;-83
2022/08/15 03:15:52;;;;;;;2.22;1.42;;;20.60;99.90;;;;;;5035610;28;20041;-80
2022/08/15 03:18:21;;;;;;;1.33;0.90;;;20.50;99.90;;;;;;5051539;28;20072;-80
2022/08/15 03:20:51;;;;;;;1.75;1.00;;;20.50;99.90;;;;;;5068617;28;20088;-83
2022/08/15 03:23:20;;;;;;;1.63;0.90;;;20.40;99.90;;;;;;5051540;28;20098;-83
2022/08/15 03:25:51;;;;;;;1.70;1.10;;;20.40;99.90;;;;;;5051681;28;20510;-80
2022/08/15 03:28:24;;;;;;;1.65;0.98;;;20.40;99.90;;;;;;5051944;28;20033;-80
2022/08/15 03:30:51;;;;;;;1.50;0.88;;;20.30;99.90;;;;;;5051365;28;20041;-82
2022/08/15 03:33:18;;;;;;;1.15;0.75;;;20.20;99.90;;;;;;5051356;28;20545;-80
2022/08/15 03:35:50;;;;;;;1.25;0.88;;;20.20;99.90;;;;;;5035291;28;20124;-80
2022/08/15 03:38:17;;;;;;;1.85;1.20;;;20.20;99.90;;;;;;5050979;28;20049;-80
2022/08/15 03:40:48;;;;;;;2.13;1.10;;;20.10;99.90;;;;;;5051498;28;20100;-83
2022/08/15 03:43:18;;;;;;;1.48;0.73;;;20.00;99.90;;;;;;5050928;28;20494;-83
2022/08/15 03:45:49;;;;;;;1.35;0.85;;;20.00;99.90;;;;;;5035349;28;20048;-79
2022/08/15 03:48:16;;;;;;;1.75;1.00;;;19.90;99.90;;;;;;5028873;28;20057;-80
2022/08/15 03:50:43;;;;;;;1.90;1.13;;;19.90;99.90;;;;;;5027733;28;20035;-83
2022/08/15 03:53:11;;;;;;;1.77;1.10;;;19.90;99.90;;;;;;5014821;28;20045;-79
2022/08/15 03:55:40;;;;;;;1.88;0.93;;;19.80;99.90;;;;;;5047507;28;20054;-80
2022/08/15 03:58:07;;;;;;;1.45;1.00;;;19.80;99.90;;;;;;5030901;28;20533;-82
2022/08/15 04:00:38;;;;;;;1.88;1.20;;;19.70;99.90;;;;;;5030852;28;20119;-83
2022/08/15 04:03:14;;;;;;;1.98;1.20;;;19.70;99.90;;;;;;5026739;28;20050;-80
2022/08/15 04:05:43;;;;;;;1.58;1.02;;;19.70;99.90;;;;;;5011029;28;20038;-79
2022/08/15 04:08:11;;;;;;;1.42;0.93;;;19.70;99.90;;;;;;4995004;28;20038;-83
2022/08/15 04:10:38;;;;;;;1.20;0.82;;;19.70;99.90;;;;;;5011638;28;20042;-79
2022/08/15 04:13:06;;;;;;;0.93;0.80;;;19.60;99.90;;;;;;4995022;28;20053;-80
2022/08/15 04:15:34;;;;;;;1.95;1.17;;;19.60;99.90;;;;;;5027539;28;20130;-80
2022/08/15 04:18:01;;;;;;;1.77;1.10;;;19.60;99.90;;;;;;5011015;28;20411;-80
2022/08/15 04:20:31;;;;;;;1.88;1.20;;;19.60;99.90;;;;;;4979272;28;20039;-80
2022/08/15 04:22:58;;;;;;;1.55;1.00;;;19.60;99.90;;;;;;4995416;28;20049;-83
2022/08/15 04:25:37;;;;;;;1.20;0.85;;;19.60;99.90;;;;;;4978957;28;20088;-82
2022/08/15 04:28:04;;;;;;;1.63;1.13;;;19.50;99.90;;;;;;5030092;28;20042;-80
2022/08/15 04:30:34;;;;;;;1.40;1.02;;;19.50;99.90;;;;;;5030691;28;20073;-83
2022/08/15 04:33:22;;;;;;;1.30;0.98;;;19.50;99.90;;;;;;5030233;28;20451;-80
2022/08/15 04:36:04;;;;;;;0.98;0.70;;;19.50;99.90;;;;;;5030777;28;20487;-82
2022/08/15 04:38:32;;;;;;;1.35;0.98;;;19.50;99.90;;;;;;5032362;28;20045;-80
2022/08/15 04:41:01;;;;;;;1.50;0.90;;;19.50;99.90;;;;;;5014570;28;20041;-80
2022/08/15 04:43:28;;;;;;;1.67;0.93;;;19.50;99.90;;;;;;5046788;28;20041;-80
2022/08/15 04:45:55;;;;;;;1.33;0.82;;;19.50;99.90;;;;;;5014120;28;20091;-83
2022/08/15 04:48:21;;;;;;;1.45;0.88;;;19.50;99.90;;;;;;5030104;28;20045;-83
2022/08/15 04:50:51;;;;;;;1.25;0.90;;;19.50;99.90;;;;;;4998244;28;20132;-83
2022/08/15 04:53:23;;;;;;;1.67;1.10;;;19.50;99.90;;;;;;5030106;28;20128;-83
2022/08/15 04:55:50;;;;;;;1.02;0.70;;;19.60;99.90;;;;;;5030322;28;20391;-84
2022/08/15 04:58:18;;;;;;;1.17;0.85;;;19.50;99.90;;;;;;5030109;28;20046;-83
2022/08/15 05:00:57;;;;;;;1.40;0.90;;;19.60;99.90;;;;;;5013802;28;20073;-82
2022/08/15 05:03:24;;;;;;;1.25;0.80;;;19.60;99.90;;;;;;5028537;28;20042;-80
2022/08/15 05:06:01;;;;;;;1.55;0.80;;;19.60;99.90;;;;;;5027397;28;20045;-83
2022/08/15 05:08:30;;;;;;;1.55;0.88;;;19.60;99.90;;;;;;5026431;28;20042;-80
2022/08/15 05:11:11;;;;;;;1.25;0.90;;;19.70;99.90;;;;;;4994348;28;20086;-79
2022/08/15 05:13:40;;;;;;;1.25;0.88;;;19.70;99.90;;;;;;5026454;28;20077;-80
2022/08/15 05:16:08;;;;;;;1.83;1.08;;;19.70;99.90;;;;;;5017723;28;20155;-79
2022/08/15 05:18:38;;;;;;;1.75;1.02;;;19.80;99.90;;;;;;5014064;28;20041;-80
2022/08/15 05:21:06;;;;;;;3.00;1.13;;;19.90;99.90;;;;;;5046022;28;20386;-83
2022/08/15 05:23:33;;;;;;;1.40;0.98;;;20.00;99.90;;;;;;5046020;28;20046;-83
2022/08/15 05:26:02;;;;;;;1.48;1.02;;;20.00;99.90;;;;;;5046373;28;20038;-80
2022/08/15 05:28:29;;;;;;;1.95;1.02;;;20.10;99.90;;;;;;5029353;28;20403;-80
2022/08/15 05:30:56;;;;;;;1.88;1.08;;;20.20;99.90;;;;;;4997480;28;20046;-80
2022/08/15 05:33:25;;;;;;;1.73;1.02;;;20.20;99.90;;;;;;4997410;28;20448;-83
2022/08/15 05:35:55;;;;;;;2.03;1.10;;;20.20;99.90;;;;;;5030029;28;20846;-82
2022/08/15 05:38:32;;;;;;;1.50;1.00;;;20.30;99.90;;;;;;5029524;28;20041;-80
2022/08/15 05:41:33;;;;;;;1.40;0.90;;;20.40;99.90;;;;;;5045983;28;20450;-79
2022/08/15 05:44:19;;;;;;;1.42;1.05;;;20.40;99.90;;;;;;5046360;28;20073;-83
2022/08/15 05:46:53;;;;;;;1.33;0.95;;;20.50;99.90;;;;;;5029491;28;20443;-79
2022/08/15 05:49:54;;;;;;;2.58;1.50;;;20.60;99.90;;;;;;5045635;28;20033;-83
2022/08/15 05:52:38;;;;;;;1.48;0.90;;;20.60;99.90;;;;;;4996387;28;20074;-82
2022/08/15 05:55:17;;;;;;;1.42;1.00;;;20.60;99.90;;;;;;5062326;28;20041;-82
2022/08/15 05:58:09;;;;;;;2.83;1.15;;;20.70;99.90;;;;;;5019876;28;20042;-83
2022/08/15 06:00:37;;;;;;;1.95;1.10;;;20.70;99.90;;;;;;5013148;28;20044;-80
2022/08/15 06:03:34;;;;;;;1.27;0.90;;;20.80;99.90;;;;;;5029444;28;20041;-83
2022/08/15 06:06:09;;;;;;;1.80;0.90;;;20.80;99.90;;;;;;5011907;28;20041;-80
2022/08/15 06:08:47;;;;;;;1.77;1.00;;;20.80;99.90;;;;;;5012854;28;20096;-79
2022/08/15 06:11:20;;;;;;;1.55;1.02;;;20.90;99.90;;;;;;5012638;28;20033;-82
2022/08/15 06:13:56;;;;;;;2.05;1.30;;;21.00;99.90;;;;;;5029405;28;20065;-80
2022/08/15 06:16:40;;;;;;;1.20;0.80;;;21.10;99.90;;;;;;5029284;28;20073;-80
2022/08/15 06:19:35;;;;;;;1.45;0.88;;;21.20;99.90;;;;;;5029578;28;20038;-80
2022/08/15 06:22:06;;;;;;;1.38;0.93;;;21.30;99.90;;;;;;5012251;28;20057;-80
2022/08/15 06:24:56;;;;;;;1.75;0.80;;;21.40;99.90;;;;;;5009363;28;20035;-82
2022/08/15 06:27:43;;;;;;;1.67;1.05;;;21.50;99.90;;;;;;5017923;28;20037;-80
2022/08/15 06:30:21;;;;;;;1.60;1.20;;;21.60;99.90;;;;;;5024084;28;20041;-80
2022/08/15 06:33:12;;;;;;;1.75;1.05;;;21.80;99.90;;;;;;5013816;28;20120;-82
2022/08/15 06:36:06;;;;;;;2.03;1.02;;;22.00;99.90;;;;;;5015012;28;20038;-80
2022/08/15 06:38:56;;;;;;;2.15;1.27;;;22.10;99.90;;;;;;5019479;28;20046;-80
2022/08/15 06:41:44;;;;;;;1.98;1.00;;;22.30;99.90;;;;;;4996630;28;20046;-83
2022/08/15 06:44:11;;;;;;;1.45;1.02;;;22.40;99.90;;;;;;5041504;28;20041;-80
2022/08/15 06:46:38;;;;;;;1.73;0.93;;;22.40;99.90;;;;;;5022218;28;20487;-81
2022/08/15 06:49:10;;;;;;;1.90;1.10;;;22.50;99.90;;;;;;5031619;28;20037;-83
2022/08/15 06:51:38;;;;;;;1.42;0.80;;;22.60;99.90;;;;;;5013552;28;20092;-79
2022/08/15 06:54:11;;;;;;;1.67;1.05;;;22.60;99.90;;;;;;5032145;28;20052;-80
2022/08/15 06:56:45;;;;;;;1.63;1.10;;;22.60;99.90;;;;;;5031337;28;20046;-82
2022/08/15 06:59:35;;;;;;;1.37;0.93;;;22.60;99.90;;;;;;5052237;28;20048;-81
2022/08/15 07:02:39;;;;;;;1.35;0.82;;;22.70;99.90;;;;;;5068579;28;20894;-80
2022/08/15 07:05:14;;;;;;;1.48;0.95;;;22.70;99.90;;;;;;5033969;28;20042;-83
2022/08/15 07:08:03;;;;;;;1.70;1.10;;;22.70;99.90;;;;;;5030911;28;20538;-83
2022/08/15 07:11:01;;;;;;;2.05;1.08;;;22.80;99.90;;;;;;5048624;28;20124;-83
2022/08/15 07:13:44;;;;;;;1.15;0.82;;;22.70;99.90;;;;;;5048021;28;20120;-83
2022/08/15 07:16:43;;;;;;;1.95;1.08;;;22.80;99.90;;;;;;5028316;28;20070;-84
2022/08/15 07:19:10;;;;;;;1.63;0.90;;;22.80;99.90;;;;;;5037667;28;20029;-80
2022/08/15 07:21:37;;;;;;;1.60;1.00;;;22.80;99.90;;;;;;5034980;28;20065;-83
2022/08/15 07:24:08;;;;;;;0.93;0.70;;;22.90;99.90;;;;;;5047327;28;20517;-82
2022/08/15 07:26:49;;;;;;;1.02;0.80;;;22.90;99.90;;;;;;5030979;28;20042;-80
2022/08/15 07:29:38;;;;;;;1.30;1.00;;;23.00;99.90;;;;;;5052007;28;20041;-80
2022/08/15 07:32:10;;;;;;;1.63;1.17;;;23.10;99.90;;;;;;5023219;28;20100;-81
2022/08/15 07:34:51;;;;;;;2.13;1.23;;;23.20;99.90;;;;;;5020348;28;20617;-82
2022/08/15 07:37:20;;;;;;;1.88;1.20;;;23.30;99.90;;;;;;5027937;28;20046;-81
2022/08/15 07:39:57;;;;;;;1.58;1.00;;;23.50;99.90;;;;;;5045395;28;20699;-80
2022/08/15 07:42:24;;;;;;;1.65;1.08;;;23.60;99.90;;;;;;5048592;28;20519;-83
2022/08/15 07:44:55;;;;;;;3.20;1.30;;;23.80;99.90;;;;;;5036745;28;20046;-82
2022/08/15 07:47:26;;;;;;;2.15;1.23;;;23.90;99.90;;;;;;5044241;28;20088;-83
2022/08/15 07:50:21;;;;;;;2.22;1.25;;;23.90;99.90;;;;;;5043624;28;20038;-82
2022/08/15 07:52:55;;;;;;;;;;;24.10;99.90;;;;;;5031561;28;20040;-80
2022/08/15 07:55:22;;;;;;;1.50;0.80;;;24.30;99.90;;;;;;5058146;28;19925;-81
2022/08/15 07:58:02;;;;;;;1.42;1.00;;;24.50;99.90;;;;;;5047075;28;20054;-82
2022/08/15 08:00:31;;;;;;;1.25;0.80;;;24.80;99.90;;;;;;5046658;28;20042;-82
2022/08/15 08:03:03;;;;;;;1.55;0.80;;;24.90;99.90;;;;;;5046959;28;20050;-83
2022/08/15 08:05:50;;;;;;;1.10;0.85;;;25.00;99.90;;;;;;5013344;28;20117;-83
2022/08/15 08:08:19;;;;;;;1.27;0.82;;;25.10;99.90;;;;;;5011270;28;20132;-82
2022/08/15 08:10:53;;;;;;;1.40;0.88;;;25.20;99.90;;;;;;5030845;28;20050;-82
2022/08/15 08:13:50;;;;;;;1.35;0.85;;;25.30;99.90;;;;;;5030942;28;20041;-84
2022/08/15 08:16:30;;;;;;;1.58;0.98;;;25.60;99.90;;;;;;5012559;28;20051;-82
2022/08/15 08:19:17;;;;;;;1.90;0.98;;;25.80;99.90;;;;;;5046804;28;20085;-80
2022/08/15 08:22:00;;;;;;;1.65;0.90;;;25.90;99.90;;;;;;5030153;28;20034;-84
2022/08/15 08:24:47;;;;;;;1.73;0.95;;;25.90;99.90;;;;;;5030487;28;20038;-84
2022/08/15 08:27:19;;;;;;;1.00;0.70;;;25.90;99.90;;;;;;5026782;28;20721;-81
2022/08/15 08:30:03;;;;;;;1.08;0.80;;;25.90;99.90;;;;;;5010518;28;20050;-80
2022/08/15 08:33:03;;;;;;;0.85;0.63;;;25.90;99.90;;;;;;5040978;28;20038;-81
2022/08/15 08:35:52;;;;;;;1.15;0.85;;;26.00;99.90;;;;;;5027220;28;20392;-80
2022/08/15 08:38:36;;;;;;;0.63;0.60;;;26.00;99.90;;;;;;5039530;28;20081;-82
2022/08/15 08:41:36;;;;;;;3.97;0.63;;;26.00;99.90;;;;;;5030401;28;20037;-82
2022/08/15 08:44:36;;;;;;;1.38;0.90;;;26.00;99.90;;;;;;5046207;28;20038;-81
2022/08/15 08:47:22;;;;;;;1.13;0.80;;;26.10;99.90;;;;;;5045684;28;20422;-84
2022/08/15 08:50:14;;;;;;;1.17;0.70;;;26.30;99.90;;;;;;5045338;28;20034;-80
2022/08/15 08:53:02;;;;;;;1.25;0.77;;;26.50;99.90;;;;;;5025740;28;20041;-81
2022/08/15 08:55:49;;;;;;;2.33;1.05;;;26.60;99.90;;;;;;5042754;28;20475;-80
2022/08/15 08:58:40;;;;;;;0.85;0.60;;;26.80;99.90;;;;;;5018911;28;20591;-83
2022/08/15 09:01:11;;;;;;;0.60;0.60;;;26.80;99.90;;;;;;5010150;28;20039;-80
2022/08/15 09:03:54;;;;;;;1.00;0.77;;;26.80;99.90;;;;;;5012440;28;20042;-82
2022/08/15 09:06:25;;;;;;;0.85;0.60;;;26.70;99.90;;;;;;5029480;28;20757;-82
2022/08/15 09:09:06;;;;;;;0.57;0.45;;;26.60;99.90;;;;;;5029088;28;20042;-81
2022/08/15 09:11:47;;;;;;;0.65;0.50;;;26.70;99.90;;;;;;5046205;28;20042;-82
2022/08/15 09:14:24;;;;;;;1.45;0.90;;;26.80;99.90;;;;;;5028917;28;20050;-85
2022/08/15 09:16:55;;;;;;;0.82;0.63;;;26.90;99.90;;;;;;5045695;28;20056;-81
2022/08/15 09:19:27;;;;;;;1.90;0.77;;;27.10;99.90;;;;;;5029296;28;20045;-80
2022/08/15 09:21:54;;;;;;;0.60;0.50;;;27.50;99.90;;;;;;5025595;28;20046;-80
2022/08/15 09:24:23;;;;;;;0.60;0.45;;;27.70;99.90;;;;;;5023977;28;20144;-80
2022/08/15 09:26:52;;;;;;;0.95;0.55;;;27.90;99.90;;;;;;5045365;28;20038;-81
2022/08/15 09:29:30;;;;;;;0.98;0.65;;;28.10;99.90;;;;;;5046333;28;20508;-81
2022/08/15 09:32:11;;;;;;;0.90;0.70;;;28.40;99.90;;;;;;5024580;28;20041;-83
2022/08/15 09:35:05;;;;;;;0.50;0.50;;;28.60;99.90;;;;;;5050732;28;20406;-81
2022/08/15 09:37:39;;;;;;;1.25;0.80;;;28.90;99.90;;;;;;5024801;28;20046;-81
2022/08/15 09:40:28;;;;;;;1.93;0.67;;;29.10;98.40;;;;;;5042220;28;20042;-81
2022/08/15 09:43:33;;;;;;;1.02;0.75;;;29.30;99.00;;;;;;5057957;28;20082;-80
2022/08/15 09:46:25;;;;;;;1.08;0.68;;;29.40;98.20;;;;;;5008662;28;20517;-81
2022/08/15 09:49:10;;;;;;;1.13;0.70;;;29.60;97.40;;;;;;5015895;28;20115;-81
2022/08/15 09:52:18;;;;;;;0.40;0.40;;;29.70;98.50;;;;;;5046543;28;20405;-82
2022/08/15 09:54:50;;;;;;;1.88;0.70;;;29.90;96.50;;;;;;5015413;28;20049;-80
2022/08/15 09:57:26;;;;;;;1.02;0.60;;;29.80;97.60;;;;;;5026608;28;20049;-81
2022/08/15 10:00:17;;;;;;;0.60;0.60;;;29.90;95.80;;;;;;5028418;28;20481;-81
2022/08/15 10:02:49;;;;;;;1.05;0.80;;;30.00;96.20;;;;;;5019162;28;20049;-81
2022/08/15 10:05:39;;;;;;;0.98;0.70;;;30.20;96.20;;;;;;5048174;28;20040;-82
2022/08/15 10:08:09;;;;;;;0.77;0.60;;;30.30;96.60;;;;;;5032052;28;21476;-80
2022/08/15 10:10:52;;;;;;;0.63;0.60;;;30.20;96.90;;;;;;5032656;28;20034;-80
2022/08/15 10:13:45;;;;;;;1.00;0.70;;;30.30;97.40;;;;;;5029085;28;20189;-80
2022/08/15 10:16:41;;;;;;;0.85;0.68;;;30.40;95.70;;;;;;5042829;28;20117;-80
2022/08/15 10:19:25;;;;;;;0.65;0.60;;;30.50;96.10;;;;;;5038135;28;20046;-80
2022/08/15 10:21:58;;;;;;;0.68;0.50;;;30.50;97.20;;;;;;5030582;28;20097;-81
2022/08/15 10:24:25;;;;;;;1.25;0.70;;;30.50;96.40;;;;;;5033934;28;20034;-81
2022/08/15 10:27:12;;;;;;;1.17;0.50;;;30.50;96.10;;;;;;5060062;28;20049;-82
2022/08/15 10:29:47;;;;;;;0.93;0.68;;;30.60;95.50;;;;;;5031659;28;20030;-81
2022/08/15 10:32:39;;;;;;;1.13;0.65;;;30.60;96.10;;;;;;5046584;28;20050;-81
2022/08/15 10:35:15;;;;;;;1.10;0.70;;;30.60;95.80;;;;;;5029472;28;20076;-80
2022/08/15 10:37:53;;;;;;;1.30;0.77;;;30.50;94.60;;;;;;5032832;28;20037;-81
2022/08/15 10:40:34;;;;;;;1.00;0.70;;;30.30;95.50;;;;;;5035544;28;20112;-81
2022/08/15 10:43:20;;;;;;;1.38;0.70;;;30.20;95.20;;;;;;5036810;28;20046;-80
2022/08/15 10:46:12;;;;;;;0.82;0.60;;;30.20;95.30;;;;;;5029236;28;20042;-80
2022/08/15 10:48:43;;;;;;;1.13;0.70;;;30.10;94.60;;;;;;5031737;28;20502;-80
2022/08/15 10:51:32;;;;;;;1.83;0.70;;;30.10;95.70;;;;;;5033246;28;20042;-80
2022/08/15 10:54:23;;;;;;;1.48;0.80;;;30.00;94.50;;;;;;5033389;28;20179;-80
2022/08/15 10:56:55;;;;;;;1.08;0.75;;;29.90;95.00;;;;;;5019319;28;20049;-80
2022/08/15 10:59:33;;;;;;;0.85;0.63;;;29.90;94.80;;;;;;5003532;28;20034;-80
2022/08/15 11:02:09;;;;;;;0.77;0.50;;;29.90;95.40;;;;;;5009402;28;20061;-80
2022/08/15 11:04:38;;;;;;;1.40;0.70;;;30.10;95.10;;;;;;5007472;28;20046;-81
2022/08/15 11:07:33;;;;;;;1.10;0.60;;;30.20;95.70;;;;;;4995159;28;20081;-79
2022/08/15 11:10:09;;;;;;;1.00;0.80;;;30.30;94.10;;;;;;4986707;28;20038;-79
2022/08/15 11:12:42;;;;;;;0.70;0.60;;;30.40;95.00;;;;;;5000119;28;20082;-81
2022/08/15 11:15:19;;;;;;;1.15;0.80;;;30.50;93.40;;;;;;5016322;28;20107;-81
2022/08/15 11:17:56;;;;;;;1.25;0.70;;;30.60;93.40;;;;;;4994988;28;20053;-80
2022/08/15 11:20:27;;;;;;;1.05;0.70;;;30.50;93.50;;;;;;4994376;28;20045;-82
2022/08/15 11:22:59;;;;;;;0.95;0.70;;;30.60;94.90;;;;;;4978850;28;20046;-80
2022/08/15 11:25:29;;;;;;;1.50;0.90;;;30.60;94.40;;;;;;4989446;28;20073;-81
2022/08/15 11:28:04;;;;;;;0.88;0.68;;;30.50;94.70;;;;;;4995074;28;20570;-81
2022/08/15 11:30:35;;;;;;;1.15;0.70;;;30.50;94.70;;;;;;5022103;28;20034;-82
2022/08/15 11:33:26;;;;;;;1.23;0.70;;;30.60;94.10;;;;;;5011244;28;20081;-82
2022/08/15 11:36:11;;;;;;;0.95;0.75;;;30.50;94.30;;;;;;5005972;28;20041;-81
2022/08/15 11:38:56;;;;;;;1.45;1.00;;;30.20;94.90;;;;;;5004694;28;20045;-82
2022/08/15 11:41:27;;;;;;;5.07;1.10;;;29.90;95.60;;;;;;5011666;28;20105;-81
2022/08/15 11:43:58;;;;;;;0.85;0.70;;;29.70;95.90;;;;;;4996420;28;20121;-81
2022/08/15 11:46:26;;;;;;;1.48;1.08;;;29.60;95.90;;;;;;4987291;28;20083;-80
2022/08/15 11:49:04;;;;;;;1.80;1.20;;;29.40;95.70;;;;;;4974319;28;20049;-81
2022/08/15 11:51:43;;;;;;;1.90;1.08;;;29.30;96.00;;;;;;4989848;28;20058;-81
2022/08/15 11:54:12;;;;;;;1.48;1.00;;;29.20;96.30;;;;;;5007867;28;20042;-82
2022/08/15 11:57:04;;;;;;;1.38;0.95;;;29.20;96.60;;;;;;5033472;28;20474;-81
2022/08/15 11:59:35;;;;;;;1.20;0.85;;;29.10;96.30;;;;;;5037441;28;20129;-82
2022/08/15 12:02:09;;;;;;;2.58;1.17;;;29.10;97.10;;;;;;5032112;28;20030;-81
2022/08/15 12:04:42;;;;;;;5.28;1.45;;;29.00;97.00;;;;;;5034527;28;20124;-80
2022/08/15 12:07:21;;;;;;;1.52;1.00;;;28.90;97.30;;;;;;5029856;28;20033;-80
2022/08/15 12:09:52;;;;;;;1.55;1.02;;;28.90;97.90;;;;;;5029986;28;20046;-81
2022/08/15 12:12:32;;;;;;;2.20;1.20;;;28.90;97.90;;;;;;5028818;28;20460;-80
2022/08/15 12:15:34;;;;;;;1.80;1.00;;;28.70;97.70;;;;;;5037434;28;20503;-81
2022/08/15 12:18:23;;;;;;;1.98;1.20;;;28.70;98.20;;;;;;5046555;28;20038;-84
2022/08/15 12:20:57;;;;;;;1.33;0.88;;;28.70;97.80;;;;;;5026781;28;20049;-81
2022/08/15 12:23:35;;;;;;;1.23;1.00;;;28.60;98.20;;;;;;5046347;28;20049;-81
2022/08/15 12:26:09;;;;;;;1.30;0.88;;;28.50;98.10;;;;;;5052251;28;20050;-82
2022/08/15 12:28:38;;;;;;;1.70;1.00;;;28.40;98.10;;;;;;5033165;28;20037;-82
2022/08/15 12:31:22;;;;;;;2.00;1.33;;;28.50;98.40;;;;;;4999404;28;20825;-82
2022/08/15 12:34:00;;;;;;;1.83;1.15;;;28.40;97.90;;;;;;5029667;28;20040;-83
2022/08/15 12:36:29;;;;;;;1.27;0.90;;;28.30;98.20;;;;;;5046019;28;20120;-82
2022/08/15 12:38:56;;;;;;;1.52;1.10;;;28.30;98.50;;;;;;5045427;28;20459;-81
2022/08/15 12:41:24;;;;;;;1.77;1.20;;;28.30;98.50;;;;;;5016530;28;20109;-81
2022/08/15 12:43:52;;;;;;;1.15;0.80;;;28.30;98.30;;;;;;5015272;28;20526;-81
2022/08/15 12:46:19;;;;;;;1.73;1.02;;;28.40;98.90;;;;;;5013630;28;20071;-82
2022/08/15 12:48:47;;;;;;;2.20;1.38;;;28.40;98.00;;;;;;5026090;28;20038;-82
2022/08/15 12:51:15;;;;;;;2.00;1.15;;;28.30;97.80;;;;;;5044582;28;20038;-82
2022/08/15 12:53:42;;;;;;;1.63;0.95;;;28.40;98.50;;;;;;5030266;28;20030;-82
2022/08/15 12:56:09;;;;;;;1.88;1.30;;;28.60;98.50;;;;;;5000255;28;20495;-81
2022/08/15 12:58:37;;;;;;;1.98;1.17;;;28.70;98.10;;;;;;5035493;28;20042;-82
2022/08/15 13:01:10;;;;;;;1.35;0.90;;;28.80;98.10;;;;;;5046157;28;20044;-81
2022/08/15 13:03:42;;;;;;;2.80;1.25;;;28.90;98.00;;;;;;5031665;28;20112;-81
2022/08/15 13:06:34;;;;;;;1.85;1.10;;;29.10;97.60;;;;;;5029443;28;20128;-82
2022/08/15 13:09:06;;;;;;;1.98;1.08;;;29.20;97.30;;;;;;5028744;28;20034;-84
2022/08/15 13:11:35;;;;;;;1.75;1.10;;;29.30;97.80;;;;;;5045180;28;20116;-80
2022/08/15 13:14:02;;;;;;;3.13;1.30;;;29.40;97.40;;;;;;5045585;28;20041;-80
2022/08/15 13:16:31;;;;;;;1.48;1.00;;;29.40;97.50;;;;;;5025923;28;20088;-85
2022/08/15 13:19:01;;;;;;;1.38;1.00;;;29.40;96.60;;;;;;5025626;28;20648;-85
2022/08/15 13:24:13;;;;;;;;;;;29.30;97.00;;;;;;5032563;28;20045;-85
2022/08/15 13:26:42;;;;;;;1.48;0.90;;;29.30;97.50;;;;;;5029253;28;19918;-81
2022/08/15 13:29:09;;;;;;;2.17;1.30;;;29.30;97.30;;;;;;5032192;28;20049;-82
2022/08/15 13:31:36;;;;;;;1.90;1.10;;;29.40;97.40;;;;;;5024950;28;20121;-81
2022/08/15 13:34:03;;;;;;;1.15;0.90;;;29.30;97.30;;;;;;5014670;28;20124;-81
2022/08/15 13:36:31;;;;;;;1.20;0.85;;;29.40;97.50;;;;;;5032813;28;20042;-85